createdAt,value
2016-10-23T00:00:25.847Z,9.68
2016-10-23T00:01:25.868Z,9.61
2016-10-23T00:02:25.884Z,9.59
2016-10-23T00:03:25.901Z,9.56
2016-10-23T00:04:25.910Z,9.58
2016-10-23T00:05:25.937Z,9.62
2016-10-23T00:06:25.948Z,9.56
2016-10-23T00:07:25.960Z,9.55
2016-10-23T00:08:25.974Z,9.59
2016-10-23T00:09:25.982Z,9.56
2016-10-23T00:10:26.004Z,9.58
2016-10-23T00:11:26.017Z,9.58
2016-10-23T00:12:26.035Z,9.51
2016-10-23T00:13:26.052Z,9.55
2016-10-23T00:14:26.063Z,9.58
2016-10-23T00:15:26.085Z,9.56
2016-10-23T00:16:26.103Z,9.61
2016-10-23T00:17:26.130Z,9.59
2016-10-23T00:18:26.138Z,9.48
2016-10-23T00:19:26.149Z,9.55
2016-10-23T00:20:26.172Z,9.54
2016-10-23T00:21:26.184Z,9.43
2016-10-23T00:22:26.190Z,9.55
2016-10-23T00:23:26.217Z,9.5
2016-10-23T00:24:26.228Z,9.54
2016-10-23T00:25:26.552Z,9.43
2016-10-23T00:26:26.258Z,9.51
2016-10-23T00:27:26.271Z,9.43
2016-10-23T00:28:26.300Z,9.44
2016-10-23T00:29:26.300Z,9.44
2016-10-23T00:30:26.326Z,9.46
2016-10-23T00:31:26.342Z,9.41
2016-10-23T00:32:26.351Z,9.41
2016-10-23T00:33:26.373Z,9.5
2016-10-23T00:34:26.386Z,9.44
2016-10-23T00:35:26.400Z,9.4
2016-10-23T00:36:26.413Z,9.41
2016-10-23T00:37:26.436Z,9.46
2016-10-23T00:38:26.446Z,9.5
2016-10-23T00:39:26.466Z,9.47
2016-10-23T00:40:26.483Z,9.41
2016-10-23T00:41:26.496Z,9.44
2016-10-23T00:42:26.507Z,9.43
2016-10-23T00:43:26.517Z,9.44
2016-10-23T00:44:26.545Z,9.44
2016-10-23T00:45:26.870Z,9.44
2016-10-23T00:46:26.587Z,9.4
2016-10-23T00:47:26.584Z,9.48
2016-10-23T00:48:26.606Z,9.47
2016-10-23T00:49:26.621Z,9.44
2016-10-23T00:50:26.644Z,9.46
2016-10-23T00:51:26.653Z,9.41
2016-10-23T00:52:26.671Z,9.4
2016-10-23T00:53:26.683Z,9.43
2016-10-23T00:54:26.695Z,9.44
2016-10-23T00:55:26.724Z,9.44
2016-10-23T00:56:26.739Z,9.41
2016-10-23T00:57:26.756Z,9.4
2016-10-23T00:58:26.772Z,9.37
2016-10-23T00:59:26.784Z,9.4
2016-10-23T01:00:26.803Z,9.36
2016-10-23T01:01:26.822Z,9.37
2016-10-23T01:02:26.831Z,9.34
2016-10-23T01:03:26.853Z,9.34
2016-10-23T01:04:26.863Z,9.34
2016-10-23T01:05:26.884Z,9.41
2016-10-23T01:06:26.893Z,9.29
2016-10-23T01:07:26.912Z,9.37
2016-10-23T01:08:26.934Z,9.32
2016-10-23T01:09:26.940Z,9.36
2016-10-23T01:10:26.956Z,9.36
2016-10-23T01:11:26.973Z,9.34
2016-10-23T01:12:26.988Z,9.36
2016-10-23T01:13:27.003Z,9.31
2016-10-23T01:14:27.018Z,9.34
2016-10-23T01:15:27.033Z,9.4
2016-10-23T01:16:27.050Z,9.4
2016-10-23T01:17:27.064Z,9.37
2016-10-23T01:18:27.083Z,9.36
2016-10-23T01:19:27.099Z,9.29
2016-10-23T01:20:27.112Z,9.25
2016-10-23T01:21:27.127Z,9.32
2016-10-23T01:22:27.145Z,9.32
2016-10-23T01:23:27.171Z,9.29
2016-10-23T01:24:27.179Z,9.31
2016-10-23T01:25:27.205Z,9.28
2016-10-23T01:26:27.214Z,9.23
2016-10-23T01:27:27.224Z,9.26
2016-10-23T01:28:27.242Z,9.23
2016-10-23T01:29:27.249Z,9.26
2016-10-23T01:30:27.268Z,9.22
2016-10-23T01:31:27.281Z,9.23
2016-10-23T01:32:27.298Z,9.19
2016-10-23T01:33:27.318Z,9.11
2016-10-23T01:34:27.341Z,9.14
2016-10-23T01:35:27.381Z,9.18
2016-10-23T01:36:27.366Z,9.14
2016-10-23T01:37:27.384Z,9.14
2016-10-23T01:38:27.394Z,9.16
2016-10-23T01:39:27.409Z,9.1
2016-10-23T01:40:27.435Z,9.14
2016-10-23T01:41:27.446Z,9.14
2016-10-23T01:42:27.455Z,9.14
2016-10-23T01:43:27.483Z,9.13
2016-10-23T01:44:27.491Z,9.13
2016-10-23T01:45:27.541Z,9.16
2016-10-23T01:46:27.527Z,9.1
2016-10-23T01:47:27.542Z,9.14
2016-10-23T01:48:27.583Z,9.06
2016-10-23T01:49:27.603Z,9.14
2016-10-23T01:50:27.581Z,9.08
2016-10-23T01:51:27.601Z,9.08
2016-10-23T01:52:27.612Z,9.06
2016-10-23T01:53:27.624Z,9
2016-10-23T01:54:27.650Z,9.04
2016-10-23T01:55:27.659Z,9.06
2016-10-23T01:56:27.678Z,8.99
2016-10-23T01:57:27.690Z,8.97
2016-10-23T01:58:27.717Z,9.1
2016-10-23T01:59:27.724Z,8.97
2016-10-23T02:00:27.732Z,8.97
2016-10-23T02:01:27.752Z,9.06
2016-10-23T02:02:27.766Z,8.99
2016-10-23T02:03:27.782Z,9
2016-10-23T02:04:27.798Z,8.94
2016-10-23T02:05:27.813Z,8.97
2016-10-23T02:06:27.829Z,8.97
2016-10-23T02:07:27.848Z,8.95
2016-10-23T02:08:27.860Z,8.99
2016-10-23T02:09:27.879Z,8.95
2016-10-23T02:10:27.896Z,8.99
2016-10-23T02:11:27.911Z,8.91
2016-10-23T02:12:27.921Z,8.99
2016-10-23T02:13:27.938Z,8.97
2016-10-23T02:14:27.956Z,8.91
2016-10-23T02:15:27.969Z,8.95
2016-10-23T02:16:27.986Z,8.87
2016-10-23T02:17:27.997Z,8.87
2016-10-23T02:18:28.012Z,8.87
2016-10-23T02:19:28.029Z,8.91
2016-10-23T02:20:28.047Z,8.89
2016-10-23T02:21:28.059Z,8.92
2016-10-23T02:22:28.079Z,8.94
2016-10-23T02:23:28.089Z,8.88
2016-10-23T02:24:28.113Z,8.89
2016-10-23T02:25:28.126Z,8.89
2016-10-23T02:26:28.136Z,8.88
2016-10-23T02:27:28.159Z,8.92
2016-10-23T02:28:28.171Z,8.92
2016-10-23T02:29:28.190Z,8.85
2016-10-23T02:30:28.199Z,8.91
2016-10-23T02:31:28.214Z,8.92
2016-10-23T02:32:28.231Z,8.87
2016-10-23T02:33:28.245Z,8.87
2016-10-23T02:34:28.269Z,8.79
2016-10-23T02:35:28.290Z,8.91
2016-10-23T02:36:28.294Z,8.91
2016-10-23T02:37:28.308Z,8.76
2016-10-23T02:38:28.328Z,8.76
2016-10-23T02:39:28.341Z,8.84
2016-10-23T02:40:28.358Z,8.79
2016-10-23T02:41:28.366Z,8.85
2016-10-23T02:42:28.382Z,8.76
2016-10-23T02:43:28.396Z,8.82
2016-10-23T02:44:28.414Z,8.79
2016-10-23T02:45:28.429Z,8.82
2016-10-23T02:46:28.442Z,8.81
2016-10-23T02:47:28.460Z,8.84
2016-10-23T02:48:28.479Z,8.81
2016-10-23T02:49:28.487Z,8.82
2016-10-23T02:50:28.506Z,8.78
2016-10-23T02:51:28.554Z,8.79
2016-10-23T02:52:28.530Z,8.79
2016-10-23T02:53:28.549Z,8.81
2016-10-23T02:54:28.564Z,8.81
2016-10-23T02:55:28.578Z,8.87
2016-10-23T02:56:28.594Z,8.81
2016-10-23T02:57:28.614Z,8.81
2016-10-23T02:58:28.625Z,8.79
2016-10-23T02:59:28.639Z,8.87
2016-10-23T03:00:28.659Z,8.76
2016-10-23T03:01:28.671Z,8.87
2016-10-23T03:02:28.683Z,8.84
2016-10-23T03:03:28.704Z,8.82
2016-10-23T03:04:28.717Z,8.78
2016-10-23T03:05:28.733Z,8.84
2016-10-23T03:06:28.750Z,8.78
2016-10-23T03:07:28.763Z,8.84
2016-10-23T03:08:28.777Z,8.81
2016-10-23T03:09:28.795Z,8.84
2016-10-23T03:10:28.806Z,8.82
2016-10-23T03:11:28.822Z,8.76
2016-10-23T03:12:29.207Z,8.81
2016-10-23T03:13:29.216Z,8.76
2016-10-23T03:14:28.869Z,8.82
2016-10-23T03:15:28.887Z,8.74
2016-10-23T03:16:28.900Z,8.74
2016-10-23T03:17:28.916Z,8.74
2016-10-23T03:18:28.990Z,8.78
2016-10-23T03:19:28.997Z,8.81
2016-10-23T03:20:29.008Z,8.84
2016-10-23T03:21:29.010Z,8.79
2016-10-23T03:22:29.014Z,8.79
2016-10-23T03:23:29.022Z,8.79
2016-10-23T03:24:29.031Z,8.71
2016-10-23T03:25:29.040Z,8.74
2016-10-23T03:26:29.049Z,8.79
2016-10-23T03:27:29.182Z,8.81
2016-10-23T03:28:29.189Z,8.74
2016-10-23T03:29:29.199Z,8.79
2016-10-23T03:30:29.132Z,8.79
2016-10-23T03:31:29.134Z,8.79
2016-10-23T03:32:29.157Z,8.71
2016-10-23T03:33:29.158Z,8.81
2016-10-23T03:34:29.271Z,8.81
2016-10-23T03:35:29.279Z,8.94
2016-10-23T03:36:29.279Z,8.74
2016-10-23T03:37:29.219Z,8.67
2016-10-23T03:38:29.262Z,8.69
2016-10-23T03:39:29.273Z,8.87
2016-10-23T03:40:29.274Z,8.87
2016-10-23T03:41:29.283Z,8.88
2016-10-23T03:42:29.297Z,8.71
2016-10-23T03:43:29.347Z,8.79
2016-10-23T03:44:29.329Z,8.78
2016-10-23T03:45:29.340Z,8.79
2016-10-23T03:46:29.354Z,8.79
2016-10-23T03:47:29.383Z,8.78
2016-10-23T03:48:29.392Z,8.82
2016-10-23T03:49:29.428Z,8.82
2016-10-23T03:50:29.416Z,8.78
2016-10-23T03:51:29.541Z,8.76
2016-10-23T03:52:29.525Z,8.67
2016-10-23T03:53:29.539Z,8.74
2016-10-23T03:54:29.645Z,8.73
2016-10-23T03:55:29.579Z,8.67
2016-10-23T03:56:29.596Z,8.7
2016-10-23T03:57:29.596Z,8.7
2016-10-23T03:58:29.612Z,8.7
2016-10-23T03:59:29.654Z,8.81
2016-10-23T04:00:29.620Z,8.7
2016-10-23T04:01:29.625Z,8.74
2016-10-23T04:02:29.630Z,8.7
2016-10-23T04:03:29.616Z,8.7
2016-10-23T04:04:29.641Z,8.69
2016-10-23T04:05:29.651Z,8.67
2016-10-23T04:06:29.660Z,8.69
2016-10-23T04:07:29.679Z,8.69
2016-10-23T04:08:29.687Z,8.7
2016-10-23T04:09:29.704Z,8.73
2016-10-23T04:10:29.722Z,8.67
2016-10-23T04:11:29.734Z,8.79
2016-10-23T04:12:29.745Z,8.74
2016-10-23T04:13:30.182Z,8.69
2016-10-23T04:14:29.782Z,8.69
2016-10-23T04:15:29.791Z,8.82
2016-10-23T04:16:29.811Z,8.69
2016-10-23T04:17:29.821Z,8.73
2016-10-23T04:18:29.842Z,8.73
2016-10-23T04:19:29.861Z,8.81
2016-10-23T04:20:30.190Z,8.78
2016-10-23T04:21:29.884Z,8.76
2016-10-23T04:22:29.901Z,8.79
2016-10-23T04:23:29.910Z,8.73
2016-10-23T04:24:29.933Z,8.78
2016-10-23T04:25:29.955Z,8.79
2016-10-23T04:26:29.962Z,8.82
2016-10-23T04:27:29.973Z,8.76
2016-10-23T04:28:29.987Z,8.81
2016-10-23T04:29:30.126Z,8.81
2016-10-23T04:30:30.447Z,8.82
2016-10-23T04:31:30.147Z,8.79
2016-10-23T04:32:30.141Z,8.74
2016-10-23T04:33:30.190Z,8.84
2016-10-23T04:34:30.290Z,8.69
2016-10-23T04:35:30.211Z,8.79
2016-10-23T04:36:30.201Z,8.76
2016-10-23T04:37:30.278Z,8.81
2016-10-23T04:38:30.313Z,8.76
2016-10-23T04:39:30.427Z,8.79
2016-10-23T04:40:30.493Z,8.67
2016-10-23T04:41:30.223Z,8.74
2016-10-23T04:42:30.524Z,8.79
2016-10-23T04:43:30.219Z,8.76
2016-10-23T04:44:30.231Z,8.87
2016-10-23T04:45:30.249Z,8.82
2016-10-23T04:46:30.266Z,8.74
2016-10-23T04:47:30.279Z,8.78
2016-10-23T04:48:30.300Z,8.76
2016-10-23T04:49:30.621Z,8.85
2016-10-23T04:50:30.324Z,8.87
2016-10-23T04:51:30.342Z,8.76
2016-10-23T04:52:30.349Z,8.79
2016-10-23T04:53:30.373Z,8.74
2016-10-23T04:54:30.702Z,8.91
2016-10-23T04:55:30.719Z,8.79
2016-10-23T04:56:30.410Z,8.84
2016-10-23T04:57:30.432Z,8.82
2016-10-23T04:58:30.443Z,8.76
2016-10-23T04:59:30.458Z,8.78
2016-10-23T05:00:30.479Z,8.76
2016-10-23T05:01:30.485Z,8.78
2016-10-23T05:02:30.515Z,8.74
2016-10-23T05:03:30.521Z,8.78
2016-10-23T05:04:30.532Z,8.74
2016-10-23T05:05:30.553Z,8.82
2016-10-23T05:06:30.562Z,8.76
2016-10-23T05:07:30.578Z,8.79
2016-10-23T05:08:30.589Z,8.82
2016-10-23T05:09:30.609Z,8.84
2016-10-23T05:10:30.938Z,8.84
2016-10-23T05:11:30.641Z,8.79
2016-10-23T05:12:30.653Z,8.84
2016-10-23T05:13:30.670Z,8.82
2016-10-23T05:14:30.683Z,8.78
2016-10-23T05:15:30.699Z,8.79
2016-10-23T05:16:30.713Z,8.78
2016-10-23T05:17:30.727Z,8.84
2016-10-23T05:18:30.743Z,8.85
2016-10-23T05:19:30.762Z,8.81
2016-10-23T05:20:30.774Z,8.79
2016-10-23T05:21:30.794Z,8.81
2016-10-23T05:22:30.805Z,8.81
2016-10-23T05:23:30.818Z,8.81
2016-10-23T05:24:30.832Z,8.79
2016-10-23T05:25:30.890Z,8.79
2016-10-23T05:26:30.866Z,8.82
2016-10-23T05:27:30.885Z,8.88
2016-10-23T05:28:30.894Z,8.79
2016-10-23T05:29:30.912Z,8.82
2016-10-23T05:30:30.928Z,8.76
2016-10-23T05:31:30.940Z,8.79
2016-10-23T05:32:30.954Z,8.76
2016-10-23T05:33:30.974Z,8.94
2016-10-23T05:34:30.995Z,8.92
2016-10-23T05:35:31.008Z,8.76
2016-10-23T05:36:31.016Z,8.79
2016-10-23T05:37:31.031Z,8.79
2016-10-23T05:38:31.052Z,8.92
2016-10-23T05:39:31.071Z,8.79
2016-10-23T05:40:31.079Z,8.91
2016-10-23T05:41:31.092Z,8.91
2016-10-23T05:42:31.111Z,8.87
2016-10-23T05:43:31.126Z,8.92
2016-10-23T05:44:31.164Z,8.85
2016-10-23T05:45:31.151Z,8.91
2016-10-23T05:46:31.167Z,8.88
2016-10-23T05:47:31.183Z,8.85
2016-10-23T05:48:31.202Z,8.89
2016-10-23T05:49:31.215Z,8.94
2016-10-23T05:50:31.231Z,8.88
2016-10-23T05:51:31.243Z,8.91
2016-10-23T05:52:31.260Z,8.87
2016-10-23T05:53:31.273Z,8.88
2016-10-23T05:54:31.287Z,8.87
2016-10-23T05:55:31.305Z,8.92
2016-10-23T05:56:31.320Z,8.89
2016-10-23T05:57:31.336Z,8.89
2016-10-23T05:58:31.349Z,8.87
2016-10-23T05:59:31.374Z,8.88
2016-10-23T06:00:31.381Z,8.84
2016-10-23T06:01:31.399Z,8.92
2016-10-23T06:02:31.416Z,8.94
2016-10-23T06:03:31.436Z,8.99
2016-10-23T06:04:31.442Z,8.91
2016-10-23T06:05:31.463Z,8.99
2016-10-23T06:06:31.513Z,8.94
2016-10-23T06:07:31.486Z,8.99
2016-10-23T06:08:31.508Z,9
2016-10-23T06:09:31.527Z,8.95
2016-10-23T06:10:31.534Z,9
2016-10-23T06:11:31.552Z,8.95
2016-10-23T06:12:31.563Z,9
2016-10-23T06:13:31.582Z,8.95
2016-10-23T06:14:31.601Z,8.94
2016-10-23T06:15:31.617Z,9.03
2016-10-23T06:16:31.627Z,8.97
2016-10-23T06:17:31.648Z,9.02
2016-10-23T06:18:31.695Z,9.02
2016-10-23T06:19:31.709Z,8.97
2016-10-23T06:20:31.695Z,9.03
2016-10-23T06:21:31.709Z,9.06
2016-10-23T06:22:31.717Z,8.99
2016-10-23T06:23:31.732Z,9.06
2016-10-23T06:24:31.744Z,9.13
2016-10-23T06:25:31.760Z,9.06
2016-10-23T06:26:31.777Z,9.11
2016-10-23T06:27:31.793Z,9.06
2016-10-23T06:28:31.809Z,9.1
2016-10-23T06:29:31.828Z,9.1
2016-10-23T06:30:31.839Z,9.06
2016-10-23T06:31:31.972Z,9.14
2016-10-23T06:32:31.999Z,9.14
2016-10-23T06:33:32.002Z,9.13
2016-10-23T06:34:32.024Z,9.14
2016-10-23T06:35:31.915Z,9.11
2016-10-23T06:36:31.927Z,9.23
2016-10-23T06:37:31.943Z,9.13
2016-10-23T06:38:32.085Z,9.16
2016-10-23T06:39:31.979Z,9.13
2016-10-23T06:40:31.988Z,9.18
2016-10-23T06:41:32.019Z,9.11
2016-10-23T06:42:32.023Z,9.22
2016-10-23T06:43:32.039Z,9.14
2016-10-23T06:44:32.058Z,9.16
2016-10-23T06:45:32.069Z,9.23
2016-10-23T06:46:32.087Z,9.26
2016-10-23T06:47:32.099Z,9.25
2016-10-23T06:48:32.129Z,9.21
2016-10-23T06:49:32.138Z,9.25
2016-10-23T06:50:32.259Z,9.25
2016-10-23T06:51:32.164Z,9.25
2016-10-23T06:52:32.177Z,9.26
2016-10-23T06:53:32.191Z,9.28
2016-10-23T06:54:32.205Z,9.28
2016-10-23T06:55:32.226Z,9.28
2016-10-23T06:56:32.241Z,9.37
2016-10-23T06:57:32.361Z,9.23
2016-10-23T06:58:32.269Z,9.32
2016-10-23T06:59:32.402Z,9.37
2016-10-23T07:00:32.299Z,9.34
2016-10-23T07:01:32.438Z,9.36
2016-10-23T07:02:32.328Z,9.4
2016-10-23T07:03:32.343Z,9.31
2016-10-23T07:04:32.366Z,9.46
2016-10-23T07:05:32.376Z,9.4
2016-10-23T07:06:32.397Z,9.41
2016-10-23T07:07:32.410Z,9.46
2016-10-23T07:08:32.775Z,9.43
2016-10-23T07:09:32.447Z,9.46
2016-10-23T07:10:32.460Z,9.47
2016-10-23T07:11:32.586Z,9.44
2016-10-23T07:12:32.490Z,9.46
2016-10-23T07:13:32.500Z,9.4
2016-10-23T07:14:32.634Z,9.41
2016-10-23T07:15:32.535Z,9.46
2016-10-23T07:16:32.549Z,9.51
2016-10-23T07:17:32.563Z,9.44
2016-10-23T07:18:32.576Z,9.5
2016-10-23T07:19:32.717Z,9.5
2016-10-23T07:20:32.729Z,9.5
2016-10-23T07:21:32.625Z,9.47
2016-10-23T07:22:32.643Z,9.51
2016-10-23T07:23:32.765Z,9.59
2016-10-23T07:24:32.672Z,9.59
2016-10-23T07:25:32.689Z,9.59
2016-10-23T07:26:32.701Z,9.56
2016-10-23T07:27:32.711Z,9.59
2016-10-23T07:28:33.086Z,9.62
2016-10-23T07:29:32.860Z,9.58
2016-10-23T07:30:32.772Z,9.61
2016-10-23T07:31:32.780Z,9.61
2016-10-23T07:32:32.788Z,9.68
2016-10-23T07:33:32.807Z,9.64
2016-10-23T07:34:32.940Z,9.65
2016-10-23T07:35:32.839Z,9.59
2016-10-23T07:36:32.855Z,9.61
2016-10-23T07:37:32.874Z,9.68
2016-10-23T07:38:33.072Z,9.68
2016-10-23T07:39:32.902Z,9.66
2016-10-23T07:40:32.915Z,9.66
2016-10-23T07:41:32.936Z,9.69
2016-10-23T07:42:32.948Z,9.68
2016-10-23T07:43:32.962Z,9.69
2016-10-23T07:44:32.978Z,9.69
2016-10-23T07:45:33.117Z,9.65
2016-10-23T07:46:33.009Z,9.65
2016-10-23T07:47:33.027Z,9.68
2016-10-23T07:48:33.036Z,9.64
2016-10-23T07:49:33.053Z,9.79
2016-10-23T07:50:33.074Z,9.74
2016-10-23T07:51:33.119Z,9.83
2016-10-23T07:52:33.142Z,9.65
2016-10-23T07:53:33.117Z,9.68
2016-10-23T07:54:33.134Z,9.74
2016-10-23T07:55:33.241Z,9.82
2016-10-23T07:56:33.162Z,9.74
2016-10-23T07:57:33.500Z,9.77
2016-10-23T07:58:33.292Z,9.83
2016-10-23T07:59:33.214Z,9.84
2016-10-23T08:00:33.229Z,9.86
2016-10-23T08:01:33.280Z,9.87
2016-10-23T08:02:33.275Z,9.92
2016-10-23T08:03:33.270Z,9.92
2016-10-23T08:04:33.342Z,9.91
2016-10-23T08:05:33.306Z,9.94
2016-10-23T08:06:33.322Z,9.89
2016-10-23T08:07:33.335Z,9.99
2016-10-23T08:08:33.359Z,10.04
2016-10-23T08:09:33.368Z,9.97
2016-10-23T08:10:33.383Z,10.01
2016-10-23T08:11:33.401Z,10.12
2016-10-23T08:12:33.425Z,10.1
2016-10-23T08:13:33.430Z,10.07
2016-10-23T08:14:33.484Z,10.19
2016-10-23T08:15:33.468Z,10.04
2016-10-23T08:16:33.474Z,10.1
2016-10-23T08:17:33.495Z,10.13
2016-10-23T08:18:33.511Z,10.17
2016-10-23T08:19:33.566Z,10.16
2016-10-23T08:20:33.544Z,10.22
2016-10-23T08:21:33.556Z,10.23
2016-10-23T08:22:33.574Z,10.2
2016-10-23T08:23:33.594Z,10.2
2016-10-23T08:24:33.606Z,10.23
2016-10-23T08:25:33.625Z,10.28
2016-10-23T08:26:33.636Z,10.23
2016-10-23T08:27:33.657Z,10.31
2016-10-23T08:28:33.674Z,10.3
2016-10-23T08:29:33.800Z,10.25
2016-10-23T08:30:33.701Z,10.35
2016-10-23T08:31:33.825Z,10.35
2016-10-23T08:32:33.736Z,10.4
2016-10-23T08:33:33.750Z,10.41
2016-10-23T08:34:33.814Z,10.42
2016-10-23T08:35:33.776Z,10.42
2016-10-23T08:36:33.804Z,10.51
2016-10-23T08:37:33.810Z,10.54
2016-10-23T08:38:33.828Z,10.56
2016-10-23T08:39:33.850Z,10.54
2016-10-23T08:40:33.865Z,10.59
2016-10-23T08:41:33.873Z,10.57
2016-10-23T08:42:33.892Z,10.59
2016-10-23T08:43:33.910Z,10.63
2016-10-23T08:44:33.922Z,10.68
2016-10-23T08:45:33.938Z,10.64
2016-10-23T08:46:33.954Z,10.72
2016-10-23T08:47:33.980Z,10.68
2016-10-23T08:48:33.991Z,10.78
2016-10-23T08:49:34.007Z,10.75
2016-10-23T08:50:34.017Z,10.75
2016-10-23T08:51:34.035Z,10.78
2016-10-23T08:52:34.057Z,10.79
2016-10-23T08:53:34.067Z,10.74
2016-10-23T08:54:34.083Z,10.81
2016-10-23T08:55:34.097Z,10.76
2016-10-23T08:56:34.117Z,10.81
2016-10-23T08:57:34.130Z,10.75
2016-10-23T08:58:34.150Z,10.86
2016-10-23T08:59:34.168Z,10.9
2016-10-23T09:00:34.181Z,10.84
2016-10-23T09:01:34.210Z,10.94
2016-10-23T09:02:34.210Z,10.92
2016-10-23T09:03:34.232Z,10.86
2016-10-23T09:04:34.295Z,10.87
2016-10-23T09:05:34.270Z,10.93
2016-10-23T09:06:34.284Z,10.96
2016-10-23T09:07:34.299Z,11
2016-10-23T09:08:34.313Z,10.99
2016-10-23T09:09:34.328Z,11.07
2016-10-23T09:10:34.341Z,11.07
2016-10-23T09:11:34.357Z,11.1
2016-10-23T09:12:34.378Z,11.1
2016-10-23T09:13:34.393Z,11.15
2016-10-23T09:14:34.408Z,11.14
2016-10-23T09:15:34.428Z,11.18
2016-10-23T09:16:34.441Z,11.19
2016-10-23T09:17:34.460Z,11.15
2016-10-23T09:18:34.473Z,11.19
2016-10-23T09:19:34.494Z,11.23
2016-10-23T09:20:34.505Z,11.27
2016-10-23T09:21:34.525Z,11.32
2016-10-23T09:22:34.542Z,11.27
2016-10-23T09:23:34.560Z,11.33
2016-10-23T09:24:34.580Z,11.41
2016-10-23T09:25:34.594Z,11.35
2016-10-23T09:26:34.608Z,11.37
2016-10-23T09:27:34.628Z,11.4
2016-10-23T09:28:34.636Z,11.41
2016-10-23T09:29:34.657Z,11.44
2016-10-23T09:30:34.671Z,11.44
2016-10-23T09:31:34.691Z,11.51
2016-10-23T09:32:34.705Z,11.47
2016-10-23T09:33:34.719Z,11.45
2016-10-23T09:34:34.742Z,11.51
2016-10-23T09:35:34.759Z,11.48
2016-10-23T09:36:34.776Z,11.54
2016-10-23T09:37:34.792Z,11.55
2016-10-23T09:38:34.806Z,11.54
2016-10-23T09:39:34.821Z,11.57
2016-10-23T09:40:34.844Z,11.57
2016-10-23T09:41:34.857Z,11.65
2016-10-23T09:42:34.878Z,11.73
2016-10-23T09:43:34.889Z,11.73
2016-10-23T09:44:34.906Z,11.75
2016-10-23T09:45:34.922Z,11.68
2016-10-23T09:46:34.945Z,11.72
2016-10-23T09:47:34.962Z,11.73
2016-10-23T09:48:34.973Z,11.77
2016-10-23T09:49:34.987Z,11.75
2016-10-23T09:50:35.007Z,11.7
2016-10-23T09:51:35.023Z,11.86
2016-10-23T09:52:35.045Z,11.77
2016-10-23T09:53:35.060Z,11.78
2016-10-23T09:54:35.079Z,11.86
2016-10-23T09:55:35.089Z,11.9
2016-10-23T09:56:35.106Z,11.87
2016-10-23T09:57:35.127Z,11.91
2016-10-23T09:58:35.149Z,11.91
2016-10-23T09:59:35.163Z,11.97
2016-10-23T10:00:35.174Z,12.04
2016-10-23T10:01:35.201Z,11.99
2016-10-23T10:02:35.213Z,12
2016-10-23T10:03:35.244Z,12.1
2016-10-23T10:04:35.244Z,12.02
2016-10-23T10:05:35.259Z,12.04
2016-10-23T10:06:35.277Z,12.13
2016-10-23T10:07:35.302Z,12.09
2016-10-23T10:08:35.317Z,12.12
2016-10-23T10:09:35.330Z,12.17
2016-10-23T10:10:35.348Z,12.15
2016-10-23T10:11:35.365Z,12.18
2016-10-23T10:12:35.377Z,12.25
2016-10-23T10:13:35.400Z,12.22
2016-10-23T10:14:35.420Z,12.28
2016-10-23T10:15:35.749Z,12.28
2016-10-23T10:16:35.459Z,12.28
2016-10-23T10:17:35.467Z,12.28
2016-10-23T10:18:35.484Z,12.39
2016-10-23T10:19:35.521Z,12.32
2016-10-23T10:20:35.529Z,12.31
2016-10-23T10:21:35.536Z,12.29
2016-10-23T10:22:35.555Z,12.45
2016-10-23T10:23:35.571Z,12.4
2016-10-23T10:24:35.586Z,12.4
2016-10-23T10:25:35.604Z,12.4
2016-10-23T10:26:35.629Z,12.46
2016-10-23T10:27:35.642Z,12.42
2016-10-23T10:28:35.665Z,12.46
2016-10-23T10:29:35.681Z,12.5
2016-10-23T10:30:35.692Z,12.49
2016-10-23T10:31:35.715Z,12.5
2016-10-23T10:32:35.726Z,12.64
2016-10-23T10:33:35.745Z,12.65
2016-10-23T10:34:35.763Z,12.62
2016-10-23T10:35:36.103Z,12.64
2016-10-23T10:36:35.801Z,12.7
2016-10-23T10:37:35.823Z,12.62
2016-10-23T10:38:35.846Z,12.67
2016-10-23T10:39:35.852Z,12.68
2016-10-23T10:40:35.866Z,12.64
2016-10-23T10:41:35.883Z,12.75
2016-10-23T10:42:35.904Z,12.79
2016-10-23T10:43:35.923Z,12.78
2016-10-23T10:44:35.939Z,12.85
2016-10-23T10:45:35.962Z,12.85
2016-10-23T10:46:35.973Z,12.82
2016-10-23T10:47:35.991Z,12.85
2016-10-23T10:48:36.005Z,12.85
2016-10-23T10:49:36.024Z,12.91
2016-10-23T10:50:36.043Z,12.94
2016-10-23T10:51:36.060Z,12.93
2016-10-23T10:52:36.086Z,12.9
2016-10-23T10:53:36.100Z,12.94
2016-10-23T10:54:36.148Z,12.98
2016-10-23T10:55:36.131Z,12.97
2016-10-23T10:56:36.150Z,12.95
2016-10-23T10:57:36.205Z,12.98
2016-10-23T10:58:36.184Z,13.01
2016-10-23T10:59:36.201Z,13
2016-10-23T11:00:36.256Z,13.03
2016-10-23T11:01:36.238Z,13.05
2016-10-23T11:02:36.255Z,13.04
2016-10-23T11:03:36.271Z,13.03
2016-10-23T11:04:36.292Z,13.09
2016-10-23T11:05:36.311Z,13.09
2016-10-23T11:06:36.331Z,13.08
2016-10-23T11:07:36.347Z,13.05
2016-10-23T11:08:36.397Z,13.16
2016-10-23T11:09:36.383Z,13.15
2016-10-23T11:10:36.423Z,13.16
2016-10-23T11:11:36.422Z,13.19
2016-10-23T11:12:36.430Z,13.16
2016-10-23T11:13:36.459Z,13.2
2016-10-23T11:14:36.473Z,13.22
2016-10-23T11:15:36.492Z,13.18
2016-10-23T11:16:36.513Z,13.22
2016-10-23T11:17:36.535Z,13.2
2016-10-23T11:18:36.543Z,13.31
2016-10-23T11:19:36.563Z,13.28
2016-10-23T11:20:36.581Z,13.37
2016-10-23T11:21:36.599Z,13.38
2016-10-23T11:22:36.620Z,13.41
2016-10-23T11:23:36.634Z,13.44
2016-10-23T11:24:36.653Z,13.38
2016-10-23T11:25:36.669Z,13.38
2016-10-23T11:26:36.700Z,13.54
2016-10-23T11:27:36.703Z,13.53
2016-10-23T11:28:36.725Z,13.59
2016-10-23T11:29:36.778Z,13.53
2016-10-23T11:30:36.770Z,13.63
2016-10-23T11:31:36.775Z,13.6
2016-10-23T11:32:36.800Z,13.6
2016-10-23T11:33:36.812Z,13.74
2016-10-23T11:34:36.832Z,13.68
2016-10-23T11:35:36.851Z,13.63
2016-10-23T11:36:36.896Z,13.83
2016-10-23T11:37:36.925Z,13.79
2016-10-23T11:38:36.920Z,13.75
2016-10-23T11:39:36.934Z,13.78
2016-10-23T11:40:36.947Z,13.74
2016-10-23T11:41:36.965Z,13.77
2016-10-23T11:42:36.978Z,13.85
2016-10-23T11:43:36.998Z,13.86
2016-10-23T11:44:37.346Z,13.92
2016-10-23T11:45:37.040Z,13.96
2016-10-23T11:46:37.050Z,13.96
2016-10-23T11:47:37.071Z,13.95
2016-10-23T11:48:37.086Z,13.9
2016-10-23T11:49:37.105Z,13.99
2016-10-23T11:50:37.144Z,14.03
2016-10-23T11:51:37.168Z,14.07
2016-10-23T11:52:37.165Z,14.11
2016-10-23T11:53:37.188Z,14.11
2016-10-23T11:54:37.198Z,14.18
2016-10-23T11:55:37.258Z,14.18
2016-10-23T11:56:37.242Z,14.25
2016-10-23T11:57:37.263Z,14.25
2016-10-23T11:58:37.276Z,14.18
2016-10-23T11:59:37.294Z,14.18
2016-10-23T12:00:37.311Z,14.2
2016-10-23T12:01:37.331Z,14.17
2016-10-23T12:02:37.349Z,14.15
2016-10-23T12:03:37.368Z,14.17
2016-10-23T12:04:37.386Z,14.25
2016-10-23T12:05:37.407Z,14.32
2016-10-23T12:06:37.429Z,14.23
2016-10-23T12:07:37.454Z,14.29
2016-10-23T12:08:37.466Z,14.33
2016-10-23T12:09:37.485Z,14.3
2016-10-23T12:10:37.546Z,14.37
2016-10-23T12:11:37.525Z,14.33
2016-10-23T12:12:37.536Z,14.47
2016-10-23T12:13:37.557Z,14.4
2016-10-23T12:14:37.576Z,14.44
2016-10-23T12:15:37.599Z,14.41
2016-10-23T12:16:37.614Z,14.4
2016-10-23T12:17:37.747Z,14.51
2016-10-23T12:18:37.651Z,14.53
2016-10-23T12:19:37.672Z,14.5
2016-10-23T12:20:37.692Z,14.48
2016-10-23T12:21:37.702Z,14.5
2016-10-23T12:22:37.725Z,14.5
2016-10-23T12:23:37.743Z,14.58
2016-10-23T12:24:37.765Z,14.5
2016-10-23T12:25:38.110Z,14.53
2016-10-23T12:26:37.800Z,14.59
2016-10-23T12:27:37.819Z,14.59
2016-10-23T12:28:37.836Z,14.53
2016-10-23T12:29:37.863Z,14.63
2016-10-23T12:30:37.877Z,14.54
2016-10-23T12:31:37.900Z,14.63
2016-10-23T12:32:37.915Z,14.63
2016-10-23T12:33:37.932Z,14.51
2016-10-23T12:34:37.960Z,14.51
2016-10-23T12:35:37.975Z,14.69
2016-10-23T12:36:37.991Z,14.62
2016-10-23T12:37:38.007Z,14.68
2016-10-23T12:38:38.041Z,14.62
2016-10-23T12:39:38.049Z,14.59
2016-10-23T12:40:38.069Z,14.62
2016-10-23T12:41:38.096Z,14.66
2016-10-23T12:42:38.103Z,14.65
2016-10-23T12:43:38.124Z,14.63
2016-10-23T12:44:38.144Z,14.7
2016-10-23T12:45:38.170Z,14.65
2016-10-23T12:46:38.181Z,14.66
2016-10-23T12:47:38.200Z,14.69
2016-10-23T12:48:38.232Z,14.72
2016-10-23T12:49:38.234Z,14.72
2016-10-23T12:50:38.350Z,14.72
2016-10-23T12:51:38.280Z,14.69
2016-10-23T12:52:38.308Z,14.72
2016-10-23T12:53:38.315Z,14.73
2016-10-23T12:54:38.369Z,14.78
2016-10-23T12:55:38.393Z,14.78
2016-10-23T12:56:38.382Z,14.82
2016-10-23T12:57:38.391Z,14.79
2016-10-23T12:58:38.412Z,14.81
2016-10-23T12:59:38.436Z,14.78
2016-10-23T13:00:38.451Z,14.73
2016-10-23T13:01:38.467Z,14.84
2016-10-23T13:02:38.497Z,14.78
2016-10-23T13:03:38.507Z,14.77
2016-10-23T13:04:38.533Z,14.85
2016-10-23T13:05:38.550Z,14.81
2016-10-23T13:06:38.571Z,14.84
2016-10-23T13:07:38.628Z,14.82
2016-10-23T13:08:38.618Z,14.84
2016-10-23T13:09:38.625Z,14.84
2016-10-23T13:10:38.644Z,14.79
2016-10-23T13:11:38.660Z,14.97